Pucha Pucha, Argentina
Current Conditions -  °F | °C
As of 6:00 PM on Tuesday 25 Nov 2014 (Local Time) from SCAT Reporting Station
Scattered Clouds Scattered Clouds  
Wind Chill: 63°   Ceiling: Unl
Heat Index: 63°   Visibility: 6mi
Dew Point: 50°   Wind: 9mph
Humidity: 63%   Direction: 270°W
Pressure: 30.03"   Gusts: NA
Location:  28.34°S, 69.22°W
Report Text: SCAT 252100Z 27008KT 220V300 9999 SCT021 17/10 Q1017
Loading
Personal Weather Stations






























Interactive Weather Map New forecast layout! Learn more

10-Day Weather Forecast

Advertisements
Track Severe Weather on mobile